createdAt,value
2022-09-28T00:01:18.409Z,100785.66
2022-09-28T00:03:46.709Z,100781.34
2022-09-28T00:06:15.931Z,100768.56
2022-09-28T00:08:43.340Z,100771.53
2022-09-28T00:11:13.858Z,100757.22
2022-09-28T00:13:43.126Z,100729.91
2022-09-28T00:16:16.083Z,100754.38
2022-09-28T00:18:44.304Z,100766.03
2022-09-28T00:21:17.616Z,100769.00
2022-09-28T00:24:04.184Z,100758.88
2022-09-28T00:26:32.969Z,100757.69
2022-09-28T00:29:01.768Z,100734.38
2022-09-28T00:31:34.639Z,100717.25
2022-09-28T00:34:02.259Z,100729.75
2022-09-28T00:36:31.866Z,100742.72
2022-09-28T00:38:59.704Z,100743.91
2022-09-28T00:41:28.194Z,100732.72
2022-09-28T00:44:26.667Z,100744.69
2022-09-28T00:46:56.321Z,100746.38
2022-09-28T00:49:37.015Z,100730.03
2022-09-28T00:52:07.572Z,100721.06
2022-09-28T00:54:35.746Z,100739.38
2022-09-28T00:57:04.318Z,100719.41
2022-09-28T00:59:33.426Z,100722.06
2022-09-28T01:02:01.559Z,100751.56
2022-09-28T01:04:30.305Z,100708.41
2022-09-28T01:06:59.046Z,100750.53
2022-09-28T01:09:27.494Z,100734.03
2022-09-28T01:11:55.391Z,100719.84
2022-09-28T01:14:25.877Z,100734.69
2022-09-28T01:17:13.760Z,100738.69
2022-09-28T01:20:11.552Z,100743.00
2022-09-28T01:22:53.096Z,100740.16
2022-09-28T01:25:34.944Z,100747.00
2022-09-28T01:28:09.780Z,100723.63
2022-09-28T01:30:47.264Z,100744.66
2022-09-28T01:33:22.547Z,100748.00
2022-09-28T01:36:22.508Z,100742.81
2022-09-28T01:39:06.166Z,100746.81
2022-09-28T01:41:36.924Z,100754.47
2022-09-28T01:44:09.000Z,100745.47
2022-09-28T01:46:44.793Z,100739.28
2022-09-28T01:49:19.827Z,100739.81
2022-09-28T01:52:00.221Z,100735.63
2022-09-28T01:54:34.269Z,100721.25
2022-09-28T01:57:10.327Z,100738.06
2022-09-28T01:59:42.182Z,100745.06
2022-09-28T02:02:19.916Z,100749.19
2022-09-28T02:04:54.324Z,100719.44
2022-09-28T02:07:26.516Z,100734.41
2022-09-28T02:10:03.310Z,100741.94
2022-09-28T02:12:39.123Z,100750.25
2022-09-28T02:15:24.118Z,100744.09
2022-09-28T02:17:50.993Z,100736.91
2022-09-28T02:20:18.522Z,100732.75
2022-09-28T02:22:51.908Z,100741.75
2022-09-28T02:25:47.651Z,100705.69
2022-09-28T02:28:14.549Z,100748.59
2022-09-28T02:30:43.211Z,100726.75
2022-09-28T02:33:16.647Z,100746.25
2022-09-28T02:35:43.757Z,100727.28
2022-09-28T02:38:12.036Z,100732.09
2022-09-28T02:40:39.624Z,100736.44
2022-09-28T02:43:35.303Z,100732.78
2022-09-28T02:46:15.904Z,100730.25
2022-09-28T02:49:10.617Z,100735.69
2022-09-28T02:52:03.049Z,100729.38
2022-09-28T02:55:00.379Z,100730.69
2022-09-28T02:58:14.817Z,100726.81
2022-09-28T03:00:49.890Z,100677.31
2022-09-28T03:03:16.749Z,100739.50
2022-09-28T03:06:32.614Z,100730.50
2022-09-28T03:09:11.101Z,100724.22
2022-09-28T03:11:49.782Z,100720.25
2022-09-28T03:14:16.904Z,100682.78
2022-09-28T03:16:45.257Z,100709.31
2022-09-28T03:19:13.462Z,100679.69
2022-09-28T03:21:40.557Z,100693.84
2022-09-28T03:24:07.581Z,100668.75
2022-09-28T03:26:34.274Z,100701.25
2022-09-28T03:29:01.122Z,100684.81
2022-09-28T03:31:27.891Z,100692.97
2022-09-28T03:33:54.863Z,100642.53
2022-09-28T03:36:21.765Z,100702.97
2022-09-28T03:38:48.561Z,100698.66
2022-09-28T03:41:15.592Z,100686.00
2022-09-28T03:43:42.352Z,100712.78
2022-09-28T03:46:09.116Z,100692.66
2022-09-28T03:48:36.421Z,100696.50
2022-09-28T03:51:07.099Z,100680.66
2022-09-28T03:53:33.880Z,100698.47
2022-09-28T03:56:06.197Z,100711.97
2022-09-28T03:58:33.149Z,100682.81
2022-09-28T04:01:05.750Z,100707.97
2022-09-28T04:03:33.249Z,100689.84
2022-09-28T04:06:00.574Z,100704.00
2022-09-28T04:08:27.648Z,100712.16
2022-09-28T04:11:01.769Z,100692.00
2022-09-28T04:13:30.264Z,100707.81
2022-09-28T04:15:59.407Z,100700.66
2022-09-28T04:18:26.932Z,100712.16
2022-09-28T04:20:59.674Z,100709.19
2022-09-28T04:23:28.423Z,100709.00
2022-09-28T04:25:55.133Z,100729.63
2022-09-28T04:28:40.812Z,100731.63
2022-09-28T04:31:13.535Z,100713.63
2022-09-28T04:33:40.672Z,100734.16
2022-09-28T04:36:09.452Z,100728.66
2022-09-28T04:38:52.245Z,100732.16
2022-09-28T04:41:20.227Z,100701.34
2022-09-28T04:43:47.752Z,100702.53
2022-09-28T04:46:15.063Z,100724.81
2022-09-28T04:48:41.935Z,100726.16
2022-09-28T04:51:08.698Z,100705.69
2022-09-28T04:53:35.473Z,100721.00
2022-09-28T04:56:03.582Z,100726.50
2022-09-28T04:58:30.948Z,100660.03
2022-09-28T05:01:00.632Z,100703.19
2022-09-28T05:03:28.292Z,100704.38
2022-09-28T05:05:55.290Z,100722.66
2022-09-28T05:08:22.046Z,100719.50
2022-09-28T05:10:49.037Z,100708.03
2022-09-28T05:13:17.490Z,100721.16
2022-09-28T05:15:44.233Z,100718.50
2022-09-28T05:18:11.108Z,100733.16
2022-09-28T05:20:41.273Z,100697.19
2022-09-28T05:23:10.461Z,100713.50
2022-09-28T05:25:37.460Z,100723.50
2022-09-28T05:28:04.279Z,100724.00
2022-09-28T05:30:31.105Z,100726.00
2022-09-28T05:32:57.966Z,100721.66
2022-09-28T05:35:24.794Z,100701.03
2022-09-28T05:37:51.864Z,100726.97
2022-09-28T05:40:20.004Z,100673.91
2022-09-28T05:42:46.811Z,100735.09
2022-09-28T05:45:13.682Z,100719.75
2022-09-28T05:47:41.877Z,100740.09
2022-09-28T05:50:12.021Z,100732.91
2022-09-28T05:52:39.068Z,100740.75
2022-09-28T05:55:07.286Z,100733.78
2022-09-28T05:57:34.121Z,100733.13
2022-09-28T06:00:01.168Z,100743.59
2022-09-28T06:02:28.074Z,100742.75
2022-09-28T06:04:55.909Z,100739.44
2022-09-28T06:07:23.539Z,100723.47
2022-09-28T06:09:50.417Z,100720.47
2022-09-28T06:12:17.562Z,100707.31
2022-09-28T06:14:45.032Z,100715.81
2022-09-28T06:17:11.997Z,100721.66
2022-09-28T06:19:39.504Z,100725.66
2022-09-28T06:22:06.266Z,100724.34
2022-09-28T06:24:33.193Z,100728.50
2022-09-28T06:26:59.904Z,100723.31
2022-09-28T06:29:26.763Z,100717.84
2022-09-28T06:31:54.028Z,100715.66
2022-09-28T06:34:21.592Z,100723.19
2022-09-28T06:36:48.997Z,100727.31
2022-09-28T06:39:15.870Z,100733.16
2022-09-28T06:41:42.745Z,100710.13
2022-09-28T06:44:09.532Z,100732.63
2022-09-28T06:46:38.584Z,100739.63
2022-09-28T06:49:09.363Z,100721.16
2022-09-28T06:51:36.978Z,100729.50
2022-09-28T06:54:04.089Z,100728.97
2022-09-28T06:56:33.084Z,100724.78
2022-09-28T06:59:00.099Z,100738.28
2022-09-28T07:01:27.120Z,100735.16
2022-09-28T07:03:55.821Z,100728.16
2022-09-28T07:06:24.376Z,100734.81
2022-09-28T07:09:00.066Z,100729.16
2022-09-28T07:11:41.812Z,100660.03
2022-09-28T07:14:19.780Z,100742.97
2022-09-28T07:17:11.116Z,100758.28
2022-09-28T07:19:39.056Z,100730.25
2022-09-28T07:22:05.859Z,100741.81
2022-09-28T07:24:32.580Z,100743.38
2022-09-28T07:26:59.877Z,100743.25
2022-09-28T07:29:26.562Z,100740.50
2022-09-28T07:31:54.338Z,100704.16
2022-09-28T07:34:23.346Z,100725.34
2022-09-28T07:36:50.395Z,100720.75
2022-09-28T07:39:17.122Z,100727.13
2022-09-28T07:41:44.560Z,100727.00
2022-09-28T07:44:11.405Z,100711.94
2022-09-28T07:46:38.462Z,100740.69
2022-09-28T07:49:09.721Z,100728.72
2022-09-28T07:51:39.015Z,100743.81
2022-09-28T07:54:07.495Z,100735.16
2022-09-28T07:56:34.964Z,100742.91
2022-09-28T07:59:01.760Z,100762.00
2022-09-28T08:01:30.801Z,100753.81
2022-09-28T08:03:57.623Z,100729.84
2022-09-28T08:06:24.370Z,100754.31
2022-09-28T08:08:53.049Z,100756.09
2022-09-28T08:11:19.797Z,100750.53
2022-09-28T08:13:47.737Z,100761.59
2022-09-28T08:16:23.463Z,100748.44
2022-09-28T08:18:50.822Z,100730.19
2022-09-28T08:21:36.324Z,100737.22
2022-09-28T08:24:03.138Z,100740.44
2022-09-28T08:26:29.876Z,100732.13
2022-09-28T08:28:56.708Z,100746.81
2022-09-28T08:31:23.511Z,100738.50
2022-09-28T08:33:53.859Z,100720.97
2022-09-28T08:36:21.354Z,100741.59
2022-09-28T08:38:48.201Z,100757.84
2022-09-28T08:41:54.425Z,100746.56
2022-09-28T08:44:27.041Z,100739.81
2022-09-28T08:47:02.286Z,100736.84
2022-09-28T08:49:50.408Z,100733.03
2022-09-28T08:52:26.267Z,100727.06
2022-09-28T08:55:02.882Z,100700.97
2022-09-28T08:57:36.364Z,100698.00
2022-09-28T09:00:08.352Z,100742.28
2022-09-28T09:02:40.281Z,100730.44
2022-09-28T09:05:14.971Z,100719.94
2022-09-28T09:07:54.489Z,100723.75
2022-09-28T09:10:39.607Z,100719.09
2022-09-28T09:13:20.654Z,100667.81
2022-09-28T09:15:56.156Z,100721.47
2022-09-28T09:18:42.989Z,100714.06
2022-09-28T09:21:49.268Z,100695.91
2022-09-28T09:24:19.131Z,100729.16
2022-09-28T09:26:45.976Z,100713.94
2022-09-28T09:29:46.462Z,100720.84
2022-09-28T09:32:31.317Z,100725.34
2022-09-28T09:35:22.498Z,100737.56
2022-09-28T09:38:19.281Z,100744.19
2022-09-28T09:41:06.463Z,100738.00
2022-09-28T09:43:48.360Z,100739.22
2022-09-28T09:46:39.878Z,100721.13
2022-09-28T09:49:20.649Z,100725.75
2022-09-28T09:52:02.091Z,100718.00
2022-09-28T09:54:54.070Z,100723.09
2022-09-28T09:57:26.728Z,100721.66
2022-09-28T09:59:55.369Z,100719.19
2022-09-28T10:02:26.554Z,100732.09
2022-09-28T10:04:57.780Z,100725.69
2022-09-28T10:07:57.900Z,100727.38
2022-09-28T10:10:33.570Z,100741.88
2022-09-28T10:13:00.416Z,100728.41
2022-09-28T10:15:32.338Z,100729.41
2022-09-28T10:18:06.817Z,100732.72
2022-09-28T10:20:42.988Z,100741.72
2022-09-28T10:23:23.341Z,100718.84
2022-09-28T10:25:54.321Z,100734.09
2022-09-28T10:28:35.901Z,100717.06
2022-09-28T10:31:35.346Z,100742.31
2022-09-28T10:34:03.513Z,100730.97
2022-09-28T10:36:38.359Z,100738.72
2022-09-28T10:39:06.406Z,100723.59
2022-09-28T10:41:33.251Z,100752.81
2022-09-28T10:44:06.623Z,100733.09
2022-09-28T10:46:35.399Z,100736.78
2022-09-28T10:49:14.463Z,100700.97
2022-09-28T10:51:48.251Z,100731.91
2022-09-28T10:54:17.979Z,100730.88
2022-09-28T10:56:45.829Z,100701.59
2022-09-28T10:59:30.666Z,100738.19
2022-09-28T11:02:19.700Z,100718.91
2022-09-28T11:04:53.324Z,100712.47
2022-09-28T11:07:24.843Z,100713.28
2022-09-28T11:09:53.632Z,100719.41
2022-09-28T11:12:33.467Z,100698.75
2022-09-28T11:15:03.540Z,100705.66
2022-09-28T11:17:32.658Z,100704.53
2022-09-28T11:20:27.774Z,100703.41
2022-09-28T11:23:18.464Z,100700.69
2022-09-28T11:25:58.220Z,100686.09
2022-09-28T11:28:30.313Z,100683.34
2022-09-28T11:30:57.762Z,100677.59
2022-09-28T11:33:33.264Z,100679.34
2022-09-28T11:36:12.382Z,100671.47
2022-09-28T11:39:18.293Z,100672.97
2022-09-28T11:41:58.061Z,100669.41
2022-09-28T11:44:36.486Z,100662.72
2022-09-28T11:47:40.370Z,100653.13
2022-09-28T11:50:23.772Z,100615.81
2022-09-28T11:53:13.637Z,100650.38
2022-09-28T11:56:27.204Z,100660.06
2022-09-28T11:58:59.166Z,100663.31
2022-09-28T12:01:50.322Z,100657.72
2022-09-28T12:04:22.981Z,100657.28
2022-09-28T12:07:31.792Z,100645.94
2022-09-28T12:10:17.478Z,100641.78
2022-09-28T12:12:54.583Z,100638.44
2022-09-28T12:15:34.917Z,100636.41
2022-09-28T12:18:23.521Z,100636.06
2022-09-28T12:21:17.344Z,100617.63
2022-09-28T12:23:46.981Z,100628.47
2022-09-28T12:26:19.744Z,100645.91
2022-09-28T12:28:50.745Z,100622.63
2022-09-28T12:31:34.280Z,100639.91
2022-09-28T12:34:02.406Z,100636.47
2022-09-28T12:37:06.087Z,100635.44
2022-09-28T12:39:57.403Z,100633.13
2022-09-28T12:42:34.088Z,100631.19
2022-09-28T12:45:12.959Z,100626.00
2022-09-28T12:47:55.218Z,100630.25
2022-09-28T12:50:43.320Z,100590.34
2022-09-28T12:53:27.379Z,100621.88
2022-09-28T12:56:21.611Z,100625.78
2022-09-28T12:59:00.142Z,100622.34
2022-09-28T13:01:50.629Z,100613.06
2022-09-28T13:04:41.189Z,100619.66
2022-09-28T13:07:31.041Z,100623.06
2022-09-28T13:10:01.495Z,100610.84
2022-09-28T13:12:40.666Z,100607.56
2022-09-28T13:15:36.586Z,100603.19
2022-09-28T13:18:22.984Z,100591.94
2022-09-28T13:21:19.386Z,100560.59
2022-09-28T13:23:49.405Z,100561.56
2022-09-28T13:26:31.824Z,100582.50
2022-09-28T13:29:04.621Z,100585.88
2022-09-28T13:31:36.019Z,100576.53
2022-09-28T13:34:07.362Z,100571.91
2022-09-28T13:36:36.748Z,100571.53
2022-09-28T13:39:04.472Z,100571.53
2022-09-28T13:41:36.795Z,100575.66
2022-09-28T13:44:22.285Z,100572.38
2022-09-28T13:46:55.661Z,100583.66
2022-09-28T13:49:30.197Z,100560.97
2022-09-28T13:52:31.467Z,100568.75
2022-09-28T13:55:14.649Z,100556.88
2022-09-28T13:58:04.962Z,100554.81
2022-09-28T14:00:57.918Z,100513.72
2022-09-28T14:03:54.396Z,100561.63
2022-09-28T14:06:22.990Z,100566.94
2022-09-28T14:09:09.439Z,100555.91
2022-09-28T14:11:40.280Z,100564.19
2022-09-28T14:14:14.228Z,100539.72
2022-09-28T14:16:42.468Z,100538.56
2022-09-28T14:19:13.153Z,100528.06
2022-09-28T14:22:01.873Z,100537.53
2022-09-28T14:24:51.878Z,100520.81
2022-09-28T14:27:32.652Z,100543.69
2022-09-28T14:30:12.614Z,100532.09
2022-09-28T14:32:41.375Z,100534.69
2022-09-28T14:35:31.541Z,100533.13
2022-09-28T14:38:30.424Z,100528.63
2022-09-28T14:41:12.630Z,100532.66
2022-09-28T14:43:45.149Z,100520.59
2022-09-28T14:46:12.029Z,100534.47
2022-09-28T14:48:49.038Z,100514.41
2022-09-28T14:51:25.132Z,100521.91
2022-09-28T14:53:54.943Z,100501.91
2022-09-28T14:56:22.563Z,100500.81
2022-09-28T14:58:58.135Z,100475.16
2022-09-28T15:01:26.171Z,100509.41
2022-09-28T15:03:56.764Z,100495.97
2022-09-28T15:06:27.274Z,100481.91
2022-09-28T15:08:54.014Z,100491.47
2022-09-28T15:11:23.663Z,100493.88
2022-09-28T15:14:04.589Z,100467.97
2022-09-28T15:16:32.263Z,100482.53
2022-09-28T15:19:30.804Z,100471.00
2022-09-28T15:21:57.559Z,100485.00
2022-09-28T15:24:36.345Z,100463.22
2022-09-28T15:27:13.858Z,100437.56
2022-09-28T15:29:40.838Z,100472.25
2022-09-28T15:32:28.711Z,100459.94
2022-09-28T15:34:58.183Z,100447.03
2022-09-28T15:37:29.511Z,100453.47
2022-09-28T15:39:58.715Z,100452.59
2022-09-28T15:42:25.757Z,100448.38
2022-09-28T15:45:26.915Z,100435.47
2022-09-28T15:48:26.286Z,100402.06
2022-09-28T15:51:05.478Z,100436.34
2022-09-28T15:53:33.728Z,100445.50
2022-09-28T15:56:09.819Z,100396.78
2022-09-28T15:58:38.357Z,100459.91
2022-09-28T16:01:24.004Z,100472.06
2022-09-28T16:03:50.780Z,100462.09
2022-09-28T16:06:17.535Z,100488.72
2022-09-28T16:08:49.177Z,100461.72
2022-09-28T16:11:27.908Z,100488.69
2022-09-28T16:14:29.180Z,100487.88
2022-09-28T16:16:59.049Z,100478.94
2022-09-28T16:20:15.091Z,100486.84
2022-09-28T16:22:43.256Z,100470.31
2022-09-28T16:25:19.111Z,100454.25
2022-09-28T16:27:46.153Z,100487.34
2022-09-28T16:30:15.910Z,100487.41
2022-09-28T16:32:49.774Z,100487.25
2022-09-28T16:36:01.160Z,100478.09
2022-09-28T16:38:28.686Z,100487.03
2022-09-28T16:40:56.905Z,100480.97
2022-09-28T16:43:31.809Z,100483.09
2022-09-28T16:46:13.437Z,100487.06
2022-09-28T16:48:49.167Z,100481.03
2022-09-28T16:51:17.192Z,100484.63
2022-09-28T16:54:03.580Z,100482.31
2022-09-28T16:56:32.151Z,100460.28
2022-09-28T16:58:58.904Z,100487.06
2022-09-28T17:01:26.205Z,100469.00
2022-09-28T17:03:53.002Z,100487.59
2022-09-28T17:06:22.368Z,100478.28
2022-09-28T17:08:49.246Z,100465.97
2022-09-28T17:11:23.741Z,100435.00
2022-09-28T17:13:52.096Z,100464.81
2022-09-28T17:16:49.371Z,100455.69
2022-09-28T17:19:21.957Z,100446.88
2022-09-28T17:21:49.293Z,100452.38
2022-09-28T17:24:16.228Z,100439.00
2022-09-28T17:26:45.164Z,100407.72
2022-09-28T17:29:14.712Z,100428.97
2022-09-28T17:31:42.837Z,100405.91
2022-09-28T17:34:11.259Z,100433.50
2022-09-28T17:36:38.621Z,100406.19
2022-09-28T17:39:06.978Z,100425.25
2022-09-28T17:42:16.607Z,100432.47
2022-09-28T17:44:43.393Z,100420.13
2022-09-28T17:47:11.627Z,100447.81
2022-09-28T17:49:38.947Z,100452.66
2022-09-28T17:52:05.677Z,100428.88
2022-09-28T17:54:34.009Z,100447.34
2022-09-28T17:57:00.788Z,100465.06
2022-09-28T17:59:28.682Z,100461.72
2022-09-28T18:01:58.324Z,100461.97
2022-09-28T18:04:50.757Z,100456.88
2022-09-28T18:07:13.929Z,100443.56
2022-09-28T18:09:40.810Z,100427.53
2022-09-28T18:12:07.843Z,100457.28
2022-09-28T18:14:36.148Z,100455.63
2022-09-28T18:17:03.003Z,100459.53
2022-09-28T18:19:32.142Z,100459.41
2022-09-28T18:21:59.618Z,100458.72
2022-09-28T18:24:26.362Z,100437.91
2022-09-28T18:26:53.095Z,100457.75
2022-09-28T18:29:19.843Z,100473.19
2022-09-28T18:31:47.637Z,100475.28
2022-09-28T18:34:14.612Z,100447.78
2022-09-28T18:36:41.509Z,100426.25
2022-09-28T18:39:08.209Z,100429.22
2022-09-28T18:41:35.169Z,100414.97
2022-09-28T18:44:02.289Z,100437.47
2022-09-28T18:46:36.493Z,100438.19
2022-09-28T18:49:04.818Z,100445.38
2022-09-28T18:51:31.567Z,100460.53
2022-09-28T18:53:58.444Z,100449.25
2022-09-28T18:56:25.810Z,100435.75
2022-09-28T18:58:52.819Z,100450.69
2022-09-28T19:01:30.507Z,100432.94
2022-09-28T19:04:01.914Z,100408.31
2022-09-28T19:06:30.058Z,100445.16
2022-09-28T19:08:57.525Z,100445.03
2022-09-28T19:11:25.576Z,100450.00
2022-09-28T19:13:54.412Z,100459.00
2022-09-28T19:16:24.457Z,100434.50
2022-09-28T19:18:53.837Z,100449.31
2022-09-28T19:21:21.379Z,100479.72
2022-09-28T19:23:49.790Z,100487.25
2022-09-28T19:26:21.117Z,100500.06
2022-09-28T19:28:48.575Z,100495.34
2022-09-28T19:31:17.233Z,100485.38
2022-09-28T19:33:45.997Z,100472.94
2022-09-28T19:36:16.754Z,100470.59
2022-09-28T19:38:43.486Z,100467.16
2022-09-28T19:41:39.389Z,100472.28
2022-09-28T19:44:26.958Z,100484.28
2022-09-28T19:47:07.599Z,100479.63
2022-09-28T19:49:39.365Z,100472.50
2022-09-28T19:52:16.735Z,100481.38
2022-09-28T19:54:45.904Z,100463.00
2022-09-28T19:57:16.153Z,100468.94
2022-09-28T19:59:43.238Z,100479.44
2022-09-28T20:02:11.218Z,100466.31
2022-09-28T20:04:38.093Z,100451.94
2022-09-28T20:07:05.196Z,100489.69
2022-09-28T20:09:32.834Z,100479.13
2022-09-28T20:11:59.737Z,100479.53
2022-09-28T20:14:30.720Z,100474.88
2022-09-28T20:17:01.044Z,100438.75
2022-09-28T20:19:27.956Z,100479.25
2022-09-28T20:21:55.268Z,100476.41
2022-09-28T20:24:22.120Z,100477.94
2022-09-28T20:26:49.709Z,100498.44
2022-09-28T20:29:16.606Z,100472.81
2022-09-28T20:31:44.205Z,100456.72
2022-09-28T20:34:12.691Z,100452.56
2022-09-28T20:36:44.776Z,100432.84
2022-09-28T20:41:49.562Z,100345.41
2022-09-28T20:44:16.739Z,100470.19
2022-09-28T20:46:46.593Z,100420.94
2022-09-28T20:49:13.525Z,100483.03
2022-09-28T20:51:40.480Z,100464.41
2022-09-28T20:54:07.491Z,100293.28
2022-09-28T20:56:38.242Z,100420.19
2022-09-28T20:59:07.668Z,100472.28
2022-09-28T21:01:35.034Z,100458.91
2022-09-28T21:04:04.027Z,100403.31
2022-09-28T21:06:33.429Z,100489.34
2022-09-28T21:09:00.423Z,100485.72
2022-09-28T21:11:30.034Z,100471.78
2022-09-28T21:14:02.894Z,100478.59
2022-09-28T21:16:31.711Z,100434.81
2022-09-28T21:18:58.751Z,100429.00
2022-09-28T21:21:26.497Z,100458.56
2022-09-28T21:23:57.987Z,100495.94
2022-09-28T21:26:27.757Z,100440.31
2022-09-28T21:29:10.583Z,100502.28
2022-09-28T21:31:47.701Z,100483.63
2022-09-28T21:34:19.919Z,100314.38
2022-09-28T21:36:53.116Z,100405.66
2022-09-28T21:39:20.822Z,100501.59
2022-09-28T21:41:48.350Z,100491.19
2022-09-28T21:44:15.312Z,100416.97
2022-09-28T21:46:42.778Z,100293.13
2022-09-28T21:49:10.985Z,100403.94
2022-09-28T21:51:38.231Z,100470.28
2022-09-28T21:54:05.415Z,100507.25
2022-09-28T21:56:32.216Z,100396.38
2022-09-28T21:58:59.116Z,100451.66
2022-09-28T22:01:26.381Z,100406.00
2022-09-28T22:03:55.796Z,100426.88
2022-09-28T22:06:25.218Z,100512.41
2022-09-28T22:08:52.157Z,100468.53
2022-09-28T22:11:21.841Z,100439.06
2022-09-28T22:13:54.091Z,100466.13
2022-09-28T22:16:24.164Z,100475.75
2022-09-28T22:18:51.390Z,100470.44
2022-09-28T22:21:24.046Z,100421.28
2022-09-28T22:23:51.188Z,100420.84
2022-09-28T22:26:24.708Z,100451.06
2022-09-28T22:28:57.583Z,100462.19
2022-09-28T22:31:30.095Z,100453.84
2022-09-28T22:33:57.820Z,100456.69
2022-09-28T22:36:26.027Z,100407.38
2022-09-28T22:38:54.153Z,100413.53
2022-09-28T22:41:21.705Z,100441.72
2022-09-28T22:43:53.386Z,100449.19
2022-09-28T22:46:28.814Z,100444.56
2022-09-28T22:48:58.173Z,100450.06
2022-09-28T22:51:27.272Z,100389.47
2022-09-28T22:53:54.198Z,100442.72
2022-09-28T22:56:21.220Z,100417.63
2022-09-28T22:58:48.296Z,100426.63
2022-09-28T23:01:17.542Z,100452.50
2022-09-28T23:03:45.001Z,100433.06
2022-09-28T23:06:13.576Z,100417.22
2022-09-28T23:08:40.540Z,100412.31
2022-09-28T23:11:07.420Z,100449.13
2022-09-28T23:13:35.434Z,100420.56
2022-09-28T23:16:05.619Z,100402.59
2022-09-28T23:18:34.764Z,100392.16
2022-09-28T23:21:04.262Z,100426.28
2022-09-28T23:23:31.971Z,100369.22
2022-09-28T23:25:59.533Z,100412.63
2022-09-28T23:28:27.271Z,100424.94
2022-09-28T23:30:54.451Z,100436.13
2022-09-28T23:33:22.558Z,100427.47
2022-09-28T23:35:49.926Z,100358.31
2022-09-28T23:38:18.497Z,100390.63
2022-09-28T23:40:46.957Z,100354.13
2022-09-28T23:43:14.600Z,100386.97
2022-09-28T23:45:44.205Z,100392.97
2022-09-28T23:48:11.073Z,100408.09
2022-09-28T23:50:37.816Z,100351.69
2022-09-28T23:53:05.762Z,100384.19
2022-09-28T23:55:32.881Z,100356.03
2022-09-28T23:57:59.775Z,100402.53
